sensor_id;sensor_type;location;lat;lon;timestamp;temperature;humidity
7214;DHT22;3648;50.614;13.830;2022-12-18T00:00:48;-7.00;1.00
7214;DHT22;3648;50.614;13.830;2022-12-18T00:03:15;-7.00;1.00
7214;DHT22;3648;50.614;13.830;2022-12-18T00:05:49;-7.00;1.00
7214;DHT22;3648;50.614;13.830;2022-12-18T00:08:17;-7.10;1.00
7214;DHT22;3648;50.614;13.830;2022-12-18T00:10:44;-7.10;1.00
7214;DHT22;3648;50.614;13.830;2022-12-18T00:13:13;-7.20;1.00
7214;DHT22;3648;50.614;13.830;2022-12-18T00:15:40;-7.10;1.00
7214;DHT22;3648;50.614;13.830;2022-12-18T00:18:07;-7.10;1.00
7214;DHT22;3648;50.614;13.830;2022-12-18T00:20:36;-7.10;1.00
7214;DHT22;3648;50.614;13.830;2022-12-18T00:23:04;-7.10;1.00
7214;DHT22;3648;50.614;13.830;2022-12-18T00:25:32;-7.10;1.00
7214;DHT22;3648;50.614;13.830;2022-12-18T00:27:59;-7.10;1.00
7214;DHT22;3648;50.614;13.830;2022-12-18T00:30:28;-7.10;1.00
7214;DHT22;3648;50.614;13.830;2022-12-18T00:32:55;-7.10;1.00
7214;DHT22;3648;50.614;13.830;2022-12-18T00:35:23;-7.10;1.00
7214;DHT22;3648;50.614;13.830;2022-12-18T00:37:50;-7.10;1.00
7214;DHT22;3648;50.614;13.830;2022-12-18T00:40:17;-7.10;1.00
7214;DHT22;3648;50.614;13.830;2022-12-18T00:42:44;-7.00;1.00
7214;DHT22;3648;50.614;13.830;2022-12-18T00:45:24;-7.00;1.00
7214;DHT22;3648;50.614;13.830;2022-12-18T00:47:52;-6.90;1.00
7214;DHT22;3648;50.614;13.830;2022-12-18T00:50:20;-6.90;1.00
7214;DHT22;3648;50.614;13.830;2022-12-18T00:52:48;-6.90;1.00
7214;DHT22;3648;50.614;13.830;2022-12-18T00:55:15;-7.00;1.00
7214;DHT22;3648;50.614;13.830;2022-12-18T00:57:42;-7.00;1.00
7214;DHT22;3648;50.614;13.830;2022-12-18T01:00:12;-7.00;1.00
7214;DHT22;3648;50.614;13.830;2022-12-18T01:02:40;-7.00;1.00
7214;DHT22;3648;50.614;13.830;2022-12-18T01:05:09;-6.90;1.00
7214;DHT22;3648;50.614;13.830;2022-12-18T01:07:36;-6.90;1.00
7214;DHT22;3648;50.614;13.830;2022-12-18T01:10:05;-7.10;1.00
7214;DHT22;3648;50.614;13.830;2022-12-18T01:12:33;-7.10;1.00
7214;DHT22;3648;50.614;13.830;2022-12-18T01:15:00;-7.00;1.00
7214;DHT22;3648;50.614;13.830;2022-12-18T01:17:27;-7.00;1.00
7214;DHT22;3648;50.614;13.830;2022-12-18T01:19:54;-7.00;1.00
7214;DHT22;3648;50.614;13.830;2022-12-18T01:22:22;-7.10;1.00
7214;DHT22;3648;50.614;13.830;2022-12-18T01:24:49;-7.10;1.00
7214;DHT22;3648;50.614;13.830;2022-12-18T01:27:16;-7.10;1.00
7214;DHT22;3648;50.614;13.830;2022-12-18T01:29:43;-7.20;1.00
7214;DHT22;3648;50.614;13.830;2022-12-18T01:32:10;-7.20;1.00
7214;DHT22;3648;50.614;13.830;2022-12-18T01:34:38;-7.20;1.00
7214;DHT22;3648;50.614;13.830;2022-12-18T01:37:05;-7.20;1.00
7214;DHT22;3648;50.614;13.830;2022-12-18T01:39:33;-7.20;1.00
7214;DHT22;3648;50.614;13.830;2022-12-18T01:42:02;-7.20;1.00
7214;DHT22;3648;50.614;13.830;2022-12-18T01:44:58;-7.30;1.00
7214;DHT22;3648;50.614;13.830;2022-12-18T01:47:33;-7.30;1.00
7214;DHT22;3648;50.614;13.830;2022-12-18T01:50:03;-7.30;1.00
7214;DHT22;3648;50.614;13.830;2022-12-18T01:52:31;-7.30;1.00
7214;DHT22;3648;50.614;13.830;2022-12-18T01:55:03;-7.30;1.00
7214;DHT22;3648;50.614;13.830;2022-12-18T01:57:31;-7.30;1.00
7214;DHT22;3648;50.614;13.830;2022-12-18T02:00:04;-7.30;1.00
7214;DHT22;3648;50.614;13.830;2022-12-18T02:02:32;-7.30;1.00
7214;DHT22;3648;50.614;13.830;2022-12-18T02:04:59;-7.40;1.00
7214;DHT22;3648;50.614;13.830;2022-12-18T02:07:37;-7.40;1.00
7214;DHT22;3648;50.614;13.830;2022-12-18T02:10:12;-7.40;1.00
7214;DHT22;3648;50.614;13.830;2022-12-18T02:12:44;-7.50;1.00
7214;DHT22;3648;50.614;13.830;2022-12-18T02:15:15;-7.50;1.00
7214;DHT22;3648;50.614;13.830;2022-12-18T02:17:50;-7.60;1.00
7214;DHT22;3648;50.614;13.830;2022-12-18T02:20:22;-7.70;1.00
7214;DHT22;3648;50.614;13.830;2022-12-18T02:23:03;-7.70;1.00
7214;DHT22;3648;50.614;13.830;2022-12-18T02:28:17;-7.70;1.00
7214;DHT22;3648;50.614;13.830;2022-12-18T02:30:47;-7.80;1.00
7214;DHT22;3648;50.614;13.830;2022-12-18T02:33:16;-7.80;1.00
7214;DHT22;3648;50.614;13.830;2022-12-18T02:35:44;-7.80;1.00
7214;DHT22;3648;50.614;13.830;2022-12-18T02:38:13;-7.80;1.00
7214;DHT22;3648;50.614;13.830;2022-12-18T02:40:42;-7.90;1.00
7214;DHT22;3648;50.614;13.830;2022-12-18T02:43:11;-7.90;1.00
7214;DHT22;3648;50.614;13.830;2022-12-18T02:45:49;-7.90;1.00
7214;DHT22;3648;50.614;13.830;2022-12-18T02:48:18;-7.90;1.00
7214;DHT22;3648;50.614;13.830;2022-12-18T02:50:54;-8.00;1.00
7214;DHT22;3648;50.614;13.830;2022-12-18T02:53:27;-8.00;1.00
7214;DHT22;3648;50.614;13.830;2022-12-18T02:56:02;-8.00;1.00
7214;DHT22;3648;50.614;13.830;2022-12-18T02:58:34;-7.90;1.00
7214;DHT22;3648;50.614;13.830;2022-12-18T03:01:11;-7.90;1.00
7214;DHT22;3648;50.614;13.830;2022-12-18T03:03:43;-7.80;1.00
7214;DHT22;3648;50.614;13.830;2022-12-18T03:06:17;-7.90;1.00
7214;DHT22;3648;50.614;13.830;2022-12-18T03:08:49;-7.70;1.00
7214;DHT22;3648;50.614;13.830;2022-12-18T03:11:18;-7.60;1.00
7214;DHT22;3648;50.614;13.830;2022-12-18T03:14:07;-7.60;1.00
7214;DHT22;3648;50.614;13.830;2022-12-18T03:16:35;-7.50;1.00
7214;DHT22;3648;50.614;13.830;2022-12-18T03:19:07;-7.50;1.00
7214;DHT22;3648;50.614;13.830;2022-12-18T03:21:38;-7.50;1.00
7214;DHT22;3648;50.614;13.830;2022-12-18T03:24:08;-7.40;1.00
7214;DHT22;3648;50.614;13.830;2022-12-18T03:26:37;-7.40;1.00
7214;DHT22;3648;50.614;13.830;2022-12-18T03:29:08;-7.40;1.00
7214;DHT22;3648;50.614;13.830;2022-12-18T03:31:41;-7.30;1.00
7214;DHT22;3648;50.614;13.830;2022-12-18T03:34:12;-7.20;1.00
7214;DHT22;3648;50.614;13.830;2022-12-18T03:36:40;-7.20;1.00
7214;DHT22;3648;50.614;13.830;2022-12-18T03:39:07;-7.10;1.00
7214;DHT22;3648;50.614;13.830;2022-12-18T03:41:38;-7.10;1.00
7214;DHT22;3648;50.614;13.830;2022-12-18T03:44:12;-7.10;1.00
7214;DHT22;3648;50.614;13.830;2022-12-18T03:46:46;-7.00;1.00
7214;DHT22;3648;50.614;13.830;2022-12-18T03:49:23;-7.00;1.00
7214;DHT22;3648;50.614;13.830;2022-12-18T03:51:57;-7.00;1.00
7214;DHT22;3648;50.614;13.830;2022-12-18T03:54:28;-6.90;1.00
7214;DHT22;3648;50.614;13.830;2022-12-18T03:57:01;-7.00;1.00
7214;DHT22;3648;50.614;13.830;2022-12-18T03:59:30;-7.00;1.00
7214;DHT22;3648;50.614;13.830;2022-12-18T04:01:59;-6.90;1.00
7214;DHT22;3648;50.614;13.830;2022-12-18T04:04:28;-6.90;1.00
7214;DHT22;3648;50.614;13.830;2022-12-18T04:06:57;-6.80;1.00
7214;DHT22;3648;50.614;13.830;2022-12-18T04:09:25;-6.90;1.00
7214;DHT22;3648;50.614;13.830;2022-12-18T04:11:53;-6.80;1.00
7214;DHT22;3648;50.614;13.830;2022-12-18T04:14:20;-6.80;1.00
7214;DHT22;3648;50.614;13.830;2022-12-18T04:16:47;-6.80;1.00
7214;DHT22;3648;50.614;13.830;2022-12-18T04:19:16;-6.70;1.00
7214;DHT22;3648;50.614;13.830;2022-12-18T04:21:43;-6.60;1.00
7214;DHT22;3648;50.614;13.830;2022-12-18T04:24:10;-6.60;1.00
7214;DHT22;3648;50.614;13.830;2022-12-18T04:26:37;-6.50;1.00
7214;DHT22;3648;50.614;13.830;2022-12-18T04:29:05;-6.50;1.00
7214;DHT22;3648;50.614;13.830;2022-12-18T04:31:32;-6.40;1.00
7214;DHT22;3648;50.614;13.830;2022-12-18T04:33:59;-6.40;1.00
7214;DHT22;3648;50.614;13.830;2022-12-18T04:36:27;-6.30;1.00
7214;DHT22;3648;50.614;13.830;2022-12-18T04:38:55;-6.30;1.00
7214;DHT22;3648;50.614;13.830;2022-12-18T04:41:21;-6.30;1.00
7214;DHT22;3648;50.614;13.830;2022-12-18T04:43:49;-6.20;1.00
7214;DHT22;3648;50.614;13.830;2022-12-18T04:46:16;-6.00;1.00
7214;DHT22;3648;50.614;13.830;2022-12-18T04:48:45;-6.00;1.00
7214;DHT22;3648;50.614;13.830;2022-12-18T04:51:13;-6.10;1.00
7214;DHT22;3648;50.614;13.830;2022-12-18T04:53:41;-6.00;1.00
7214;DHT22;3648;50.614;13.830;2022-12-18T04:56:10;-5.90;1.00
7214;DHT22;3648;50.614;13.830;2022-12-18T04:58:38;-6.10;1.00
7214;DHT22;3648;50.614;13.830;2022-12-18T05:01:06;-6.10;1.00
7214;DHT22;3648;50.614;13.830;2022-12-18T05:03:34;-6.10;1.00
7214;DHT22;3648;50.614;13.830;2022-12-18T05:06:01;-6.10;1.00
7214;DHT22;3648;50.614;13.830;2022-12-18T05:08:30;-6.10;1.00
7214;DHT22;3648;50.614;13.830;2022-12-18T05:11:03;-6.20;1.00
7214;DHT22;3648;50.614;13.830;2022-12-18T05:13:31;-6.20;1.00
7214;DHT22;3648;50.614;13.830;2022-12-18T05:15:58;-6.20;1.00
7214;DHT22;3648;50.614;13.830;2022-12-18T05:18:26;-6.30;1.00
7214;DHT22;3648;50.614;13.830;2022-12-18T05:20:53;-6.20;1.00
7214;DHT22;3648;50.614;13.830;2022-12-18T05:23:22;-6.20;1.00
7214;DHT22;3648;50.614;13.830;2022-12-18T05:25:51;-6.20;1.00
7214;DHT22;3648;50.614;13.830;2022-12-18T05:28:20;-6.10;1.00
7214;DHT22;3648;50.614;13.830;2022-12-18T05:30:49;-6.10;1.00
7214;DHT22;3648;50.614;13.830;2022-12-18T05:33:16;-6.20;1.00
7214;DHT22;3648;50.614;13.830;2022-12-18T05:35:43;-6.00;1.00
7214;DHT22;3648;50.614;13.830;2022-12-18T05:38:11;-6.00;1.00
7214;DHT22;3648;50.614;13.830;2022-12-18T05:40:41;-6.00;1.00
7214;DHT22;3648;50.614;13.830;2022-12-18T05:43:08;-6.10;1.00
7214;DHT22;3648;50.614;13.830;2022-12-18T05:45:38;-6.20;1.00
7214;DHT22;3648;50.614;13.830;2022-12-18T05:48:05;-6.10;1.00
7214;DHT22;3648;50.614;13.830;2022-12-18T05:50:34;-6.00;1.00
7214;DHT22;3648;50.614;13.830;2022-12-18T05:53:02;-6.00;1.00
7214;DHT22;3648;50.614;13.830;2022-12-18T05:55:32;-5.90;1.00
7214;DHT22;3648;50.614;13.830;2022-12-18T05:58:00;-5.80;1.00
7214;DHT22;3648;50.614;13.830;2022-12-18T06:00:27;-5.80;1.00
7214;DHT22;3648;50.614;13.830;2022-12-18T06:02:55;-5.70;1.00
7214;DHT22;3648;50.614;13.830;2022-12-18T06:05:22;-5.70;1.00
7214;DHT22;3648;50.614;13.830;2022-12-18T06:07:49;-5.70;1.00
7214;DHT22;3648;50.614;13.830;2022-12-18T06:10:16;-5.60;1.00
7214;DHT22;3648;50.614;13.830;2022-12-18T06:12:44;-5.70;1.00
7214;DHT22;3648;50.614;13.830;2022-12-18T06:15:11;-5.80;1.00
7214;DHT22;3648;50.614;13.830;2022-12-18T06:17:38;-5.90;1.00
7214;DHT22;3648;50.614;13.830;2022-12-18T06:20:08;-5.80;1.00
7214;DHT22;3648;50.614;13.830;2022-12-18T06:22:35;-5.80;1.00
7214;DHT22;3648;50.614;13.830;2022-12-18T06:25:02;-6.00;1.00
7214;DHT22;3648;50.614;13.830;2022-12-18T06:27:29;-6.00;1.00
7214;DHT22;3648;50.614;13.830;2022-12-18T06:29:57;-6.00;1.00
7214;DHT22;3648;50.614;13.830;2022-12-18T06:32:24;-6.00;1.00
7214;DHT22;3648;50.614;13.830;2022-12-18T06:34:52;-6.00;1.00
7214;DHT22;3648;50.614;13.830;2022-12-18T06:37:21;-5.90;1.00
7214;DHT22;3648;50.614;13.830;2022-12-18T06:39:50;-6.00;1.00
7214;DHT22;3648;50.614;13.830;2022-12-18T06:42:17;-5.90;1.00
7214;DHT22;3648;50.614;13.830;2022-12-18T06:44:45;-6.00;1.00
7214;DHT22;3648;50.614;13.830;2022-12-18T06:47:13;-6.00;1.00
7214;DHT22;3648;50.614;13.830;2022-12-18T06:49:40;-6.00;1.00
7214;DHT22;3648;50.614;13.830;2022-12-18T06:52:07;-6.00;1.00
7214;DHT22;3648;50.614;13.830;2022-12-18T06:54:40;-6.00;1.00
7214;DHT22;3648;50.614;13.830;2022-12-18T06:57:07;-6.10;1.00
7214;DHT22;3648;50.614;13.830;2022-12-18T06:59:34;-6.10;1.00
7214;DHT22;3648;50.614;13.830;2022-12-18T07:02:01;-6.00;1.00
7214;DHT22;3648;50.614;13.830;2022-12-18T07:04:29;-6.10;1.00
7214;DHT22;3648;50.614;13.830;2022-12-18T07:06:56;-6.10;1.00
7214;DHT22;3648;50.614;13.830;2022-12-18T07:09:23;-6.00;1.00
7214;DHT22;3648;50.614;13.830;2022-12-18T07:11:52;-6.00;1.00
7214;DHT22;3648;50.614;13.830;2022-12-18T07:14:19;-5.90;1.00
7214;DHT22;3648;50.614;13.830;2022-12-18T07:16:46;-6.00;1.00
7214;DHT22;3648;50.614;13.830;2022-12-18T07:19:14;-6.00;1.00
7214;DHT22;3648;50.614;13.830;2022-12-18T07:21:41;-6.10;1.00
7214;DHT22;3648;50.614;13.830;2022-12-18T07:24:08;-6.10;1.00
7214;DHT22;3648;50.614;13.830;2022-12-18T07:26:35;-6.10;1.00
7214;DHT22;3648;50.614;13.830;2022-12-18T07:29:03;-6.10;1.00
7214;DHT22;3648;50.614;13.830;2022-12-18T07:31:30;-6.00;1.00
7214;DHT22;3648;50.614;13.830;2022-12-18T07:33:57;-5.90;1.00
7214;DHT22;3648;50.614;13.830;2022-12-18T07:36:25;-5.90;1.00
7214;DHT22;3648;50.614;13.830;2022-12-18T07:38:52;-5.90;1.00
7214;DHT22;3648;50.614;13.830;2022-12-18T07:41:19;-5.90;1.00
7214;DHT22;3648;50.614;13.830;2022-12-18T07:43:47;-5.80;1.00
7214;DHT22;3648;50.614;13.830;2022-12-18T07:46:17;-5.90;1.00
7214;DHT22;3648;50.614;13.830;2022-12-18T07:48:45;-5.90;1.00
7214;DHT22;3648;50.614;13.830;2022-12-18T07:51:13;-5.90;1.00
7214;DHT22;3648;50.614;13.830;2022-12-18T07:53:41;-5.80;1.00
7214;DHT22;3648;50.614;13.830;2022-12-18T07:56:10;-5.80;1.00
7214;DHT22;3648;50.614;13.830;2022-12-18T07:58:37;-5.80;1.00
7214;DHT22;3648;50.614;13.830;2022-12-18T08:01:06;-5.70;1.00
7214;DHT22;3648;50.614;13.830;2022-12-18T08:03:36;-5.60;1.00
7214;DHT22;3648;50.614;13.830;2022-12-18T08:06:05;-5.50;1.00
7214;DHT22;3648;50.614;13.830;2022-12-18T08:08:33;-5.40;1.00
7214;DHT22;3648;50.614;13.830;2022-12-18T08:11:00;-5.30;1.00
7214;DHT22;3648;50.614;13.830;2022-12-18T08:13:28;-5.30;1.00
7214;DHT22;3648;50.614;13.830;2022-12-18T08:15:56;-5.30;1.00
7214;DHT22;3648;50.614;13.830;2022-12-18T08:18:24;-5.30;1.00
7214;DHT22;3648;50.614;13.830;2022-12-18T08:20:53;-5.30;1.00
7214;DHT22;3648;50.614;13.830;2022-12-18T08:23:21;-5.30;1.00
7214;DHT22;3648;50.614;13.830;2022-12-18T08:25:48;-5.30;1.00
7214;DHT22;3648;50.614;13.830;2022-12-18T08:28:18;-5.30;1.00
7214;DHT22;3648;50.614;13.830;2022-12-18T08:30:46;-5.40;1.00
7214;DHT22;3648;50.614;13.830;2022-12-18T08:33:13;-5.20;1.00
7214;DHT22;3648;50.614;13.830;2022-12-18T08:35:40;-5.20;1.00
7214;DHT22;3648;50.614;13.830;2022-12-18T08:38:09;-5.10;1.00
7214;DHT22;3648;50.614;13.830;2022-12-18T08:40:36;-5.20;1.00
7214;DHT22;3648;50.614;13.830;2022-12-18T08:43:03;-5.10;1.00
7214;DHT22;3648;50.614;13.830;2022-12-18T08:45:48;-4.90;1.00
7214;DHT22;3648;50.614;13.830;2022-12-18T08:48:15;-4.90;1.00
7214;DHT22;3648;50.614;13.830;2022-12-18T08:50:42;-4.70;1.00
7214;DHT22;3648;50.614;13.830;2022-12-18T08:53:12;-4.80;1.00
7214;DHT22;3648;50.614;13.830;2022-12-18T08:55:40;-5.00;1.00
7214;DHT22;3648;50.614;13.830;2022-12-18T08:58:08;-5.10;1.00
7214;DHT22;3648;50.614;13.830;2022-12-18T09:00:35;-4.90;1.00
7214;DHT22;3648;50.614;13.830;2022-12-18T09:03:03;-4.80;1.00
7214;DHT22;3648;50.614;13.830;2022-12-18T09:05:30;-4.70;1.00
7214;DHT22;3648;50.614;13.830;2022-12-18T09:07:58;-4.60;1.00
7214;DHT22;3648;50.614;13.830;2022-12-18T09:10:27;-4.60;1.00
7214;DHT22;3648;50.614;13.830;2022-12-18T09:12:54;-4.60;1.00
7214;DHT22;3648;50.614;13.830;2022-12-18T09:15:22;-4.80;1.00
7214;DHT22;3648;50.614;13.830;2022-12-18T09:17:49;-4.80;1.00
7214;DHT22;3648;50.614;13.830;2022-12-18T09:20:18;-4.80;1.00
7214;DHT22;3648;50.614;13.830;2022-12-18T09:22:46;-4.80;1.00
7214;DHT22;3648;50.614;13.830;2022-12-18T09:25:13;-4.90;1.00
7214;DHT22;3648;50.614;13.830;2022-12-18T09:27:41;-4.90;1.00
7214;DHT22;3648;50.614;13.830;2022-12-18T09:30:10;-4.90;1.00
7214;DHT22;3648;50.614;13.830;2022-12-18T09:32:37;-4.80;1.00
7214;DHT22;3648;50.614;13.830;2022-12-18T09:35:05;-4.70;1.00
7214;DHT22;3648;50.614;13.830;2022-12-18T09:37:32;-4.70;1.00
7214;DHT22;3648;50.614;13.830;2022-12-18T09:39:59;-4.70;1.00
7214;DHT22;3648;50.614;13.830;2022-12-18T09:42:27;-4.60;1.00
7214;DHT22;3648;50.614;13.830;2022-12-18T09:44:56;-4.60;1.00
7214;DHT22;3648;50.614;13.830;2022-12-18T09:47:28;-4.50;1.00
7214;DHT22;3648;50.614;13.830;2022-12-18T09:49:58;-4.50;1.00
7214;DHT22;3648;50.614;13.830;2022-12-18T09:52:30;-4.50;1.00
7214;DHT22;3648;50.614;13.830;2022-12-18T09:55:03;-4.50;1.00
7214;DHT22;3648;50.614;13.830;2022-12-18T09:57:33;-4.70;1.00
7214;DHT22;3648;50.614;13.830;2022-12-18T10:00:13;-4.60;1.00
7214;DHT22;3648;50.614;13.830;2022-12-18T10:02:42;-4.60;1.00
7214;DHT22;3648;50.614;13.830;2022-12-18T10:05:12;-4.60;1.00
7214;DHT22;3648;50.614;13.830;2022-12-18T10:07:52;-4.50;1.00
7214;DHT22;3648;50.614;13.830;2022-12-18T10:10:27;-4.50;1.00
7214;DHT22;3648;50.614;13.830;2022-12-18T10:13:02;-4.40;1.00
7214;DHT22;3648;50.614;13.830;2022-12-18T10:15:38;-4.40;1.00
7214;DHT22;3648;50.614;13.830;2022-12-18T10:18:19;-4.30;1.00
7214;DHT22;3648;50.614;13.830;2022-12-18T10:20:52;-4.20;1.00
7214;DHT22;3648;50.614;13.830;2022-12-18T10:23:25;-4.10;1.00
7214;DHT22;3648;50.614;13.830;2022-12-18T10:25:57;-4.00;1.00
7214;DHT22;3648;50.614;13.830;2022-12-18T10:28:27;-4.10;1.00
7214;DHT22;3648;50.614;13.830;2022-12-18T10:30:58;-4.10;1.00
7214;DHT22;3648;50.614;13.830;2022-12-18T10:33:29;-4.20;1.00
7214;DHT22;3648;50.614;13.830;2022-12-18T10:35:57;-4.30;1.00
7214;DHT22;3648;50.614;13.830;2022-12-18T10:38:27;-4.20;1.00
7214;DHT22;3648;50.614;13.830;2022-12-18T10:40:56;-4.20;1.00
7214;DHT22;3648;50.614;13.830;2022-12-18T10:43:26;-4.20;1.00
7214;DHT22;3648;50.614;13.830;2022-12-18T10:46:04;-4.10;1.00
7214;DHT22;3648;50.614;13.830;2022-12-18T10:48:40;-4.00;1.00
7214;DHT22;3648;50.614;13.830;2022-12-18T10:51:20;-3.90;1.00
7214;DHT22;3648;50.614;13.830;2022-12-18T10:53:53;-3.80;1.00
7214;DHT22;3648;50.614;13.830;2022-12-18T10:56:20;-3.70;1.00
7214;DHT22;3648;50.614;13.830;2022-12-18T10:58:57;-3.80;1.00
7214;DHT22;3648;50.614;13.830;2022-12-18T11:01:26;-3.70;1.00
7214;DHT22;3648;50.614;13.830;2022-12-18T11:04:02;-3.70;1.00
7214;DHT22;3648;50.614;13.830;2022-12-18T11:06:34;-3.60;1.00
7214;DHT22;3648;50.614;13.830;2022-12-18T11:09:19;-3.50;1.00
7214;DHT22;3648;50.614;13.830;2022-12-18T11:11:49;-3.50;1.00
7214;DHT22;3648;50.614;13.830;2022-12-18T11:14:21;-3.50;1.00
7214;DHT22;3648;50.614;13.830;2022-12-18T11:16:52;-3.50;1.00
7214;DHT22;3648;50.614;13.830;2022-12-18T11:19:24;-3.40;1.00
7214;DHT22;3648;50.614;13.830;2022-12-18T11:21:52;-3.40;1.00
7214;DHT22;3648;50.614;13.830;2022-12-18T11:24:22;-3.40;1.00
7214;DHT22;3648;50.614;13.830;2022-12-18T11:26:53;-3.40;1.00
7214;DHT22;3648;50.614;13.830;2022-12-18T11:29:24;-3.40;1.00
7214;DHT22;3648;50.614;13.830;2022-12-18T11:32:30;-3.40;1.00
7214;DHT22;3648;50.614;13.830;2022-12-18T11:35:10;-3.30;1.00
7214;DHT22;3648;50.614;13.830;2022-12-18T11:37:43;-3.30;1.00
7214;DHT22;3648;50.614;13.830;2022-12-18T11:40:15;-3.30;1.00
7214;DHT22;3648;50.614;13.830;2022-12-18T11:42:48;-3.30;1.00
7214;DHT22;3648;50.614;13.830;2022-12-18T11:45:28;-3.30;1.00
7214;DHT22;3648;50.614;13.830;2022-12-18T11:48:01;-3.30;1.00
7214;DHT22;3648;50.614;13.830;2022-12-18T11:50:38;-3.30;1.00
7214;DHT22;3648;50.614;13.830;2022-12-18T11:53:11;-3.30;1.00
7214;DHT22;3648;50.614;13.830;2022-12-18T11:55:43;-3.20;1.00
7214;DHT22;3648;50.614;13.830;2022-12-18T11:58:22;-3.30;1.00
7214;DHT22;3648;50.614;13.830;2022-12-18T12:01:02;-3.40;1.00
7214;DHT22;3648;50.614;13.830;2022-12-18T12:04:09;-3.60;1.00
7214;DHT22;3648;50.614;13.830;2022-12-18T12:06:46;-3.50;1.00
7214;DHT22;3648;50.614;13.830;2022-12-18T12:09:21;-3.70;1.00
7214;DHT22;3648;50.614;13.830;2022-12-18T12:11:57;-3.70;1.00
7214;DHT22;3648;50.614;13.830;2022-12-18T12:14:38;-3.80;1.00
7214;DHT22;3648;50.614;13.830;2022-12-18T12:17:14;-3.80;1.00
7214;DHT22;3648;50.614;13.830;2022-12-18T12:19:53;-3.70;1.00
7214;DHT22;3648;50.614;13.830;2022-12-18T12:22:29;-3.70;1.00
7214;DHT22;3648;50.614;13.830;2022-12-18T12:25:08;-3.60;1.00
7214;DHT22;3648;50.614;13.830;2022-12-18T12:27:46;-3.80;1.00
7214;DHT22;3648;50.614;13.830;2022-12-18T12:30:20;-3.80;1.00
7214;DHT22;3648;50.614;13.830;2022-12-18T12:33:06;-3.80;1.00
7214;DHT22;3648;50.614;13.830;2022-12-18T12:35:46;-3.80;1.00
7214;DHT22;3648;50.614;13.830;2022-12-18T12:38:17;-3.70;1.00
7214;DHT22;3648;50.614;13.830;2022-12-18T12:40:48;-3.80;1.00
7214;DHT22;3648;50.614;13.830;2022-12-18T12:43:28;-3.90;1.00
7214;DHT22;3648;50.614;13.830;2022-12-18T12:46:03;-4.00;1.00
7214;DHT22;3648;50.614;13.830;2022-12-18T12:48:40;-4.00;1.00
7214;DHT22;3648;50.614;13.830;2022-12-18T12:51:13;-3.90;1.00
7214;DHT22;3648;50.614;13.830;2022-12-18T12:53:42;-3.90;1.00
7214;DHT22;3648;50.614;13.830;2022-12-18T12:56:12;-3.90;1.00
7214;DHT22;3648;50.614;13.830;2022-12-18T12:58:50;-3.90;1.00
7214;DHT22;3648;50.614;13.830;2022-12-18T13:01:28;-3.90;1.00
7214;DHT22;3648;50.614;13.830;2022-12-18T13:04:04;-3.90;1.00
7214;DHT22;3648;50.614;13.830;2022-12-18T13:06:45;-3.80;1.00
7214;DHT22;3648;50.614;13.830;2022-12-18T13:09:13;-3.80;1.00
7214;DHT22;3648;50.614;13.830;2022-12-18T13:11:42;-3.90;1.00
7214;DHT22;3648;50.614;13.830;2022-12-18T13:14:30;-3.90;1.00
7214;DHT22;3648;50.614;13.830;2022-12-18T13:17:23;-4.00;1.00
7214;DHT22;3648;50.614;13.830;2022-12-18T13:20:07;-3.80;1.00
7214;DHT22;3648;50.614;13.830;2022-12-18T13:22:37;-3.80;1.00
7214;DHT22;3648;50.614;13.830;2022-12-18T13:25:32;-3.90;1.00
7214;DHT22;3648;50.614;13.830;2022-12-18T13:28:03;-4.00;1.00
7214;DHT22;3648;50.614;13.830;2022-12-18T13:30:48;-4.00;1.00
7214;DHT22;3648;50.614;13.830;2022-12-18T13:33:45;-4.00;1.00
7214;DHT22;3648;50.614;13.830;2022-12-18T13:36:15;-4.00;1.00
7214;DHT22;3648;50.614;13.830;2022-12-18T13:38:44;-4.00;1.00
7214;DHT22;3648;50.614;13.830;2022-12-18T13:41:26;-4.10;1.00
7214;DHT22;3648;50.614;13.830;2022-12-18T13:43:54;-4.20;1.00
7214;DHT22;3648;50.614;13.830;2022-12-18T13:46:27;-4.20;1.00
7214;DHT22;3648;50.614;13.830;2022-12-18T13:48:57;-4.20;1.00
7214;DHT22;3648;50.614;13.830;2022-12-18T13:51:27;-4.20;1.00
7214;DHT22;3648;50.614;13.830;2022-12-18T13:53:58;-4.30;1.00
7214;DHT22;3648;50.614;13.830;2022-12-18T13:56:28;-4.20;1.00
7214;DHT22;3648;50.614;13.830;2022-12-18T13:59:13;-4.10;1.00
7214;DHT22;3648;50.614;13.830;2022-12-18T14:01:45;-4.00;1.00
7214;DHT22;3648;50.614;13.830;2022-12-18T14:04:16;-3.90;1.00
7214;DHT22;3648;50.614;13.830;2022-12-18T14:06:45;-3.90;1.00
7214;DHT22;3648;50.614;13.830;2022-12-18T14:09:15;-3.90;1.00
7214;DHT22;3648;50.614;13.830;2022-12-18T14:11:49;-3.80;1.00
7214;DHT22;3648;50.614;13.830;2022-12-18T14:14:17;-3.80;1.00
7214;DHT22;3648;50.614;13.830;2022-12-18T14:16:46;-3.80;1.00
7214;DHT22;3648;50.614;13.830;2022-12-18T14:19:15;-3.70;1.00
7214;DHT22;3648;50.614;13.830;2022-12-18T14:21:46;-3.60;1.00
7214;DHT22;3648;50.614;13.830;2022-12-18T14:24:16;-3.70;1.00
7214;DHT22;3648;50.614;13.830;2022-12-18T14:26:44;-3.70;1.00
7214;DHT22;3648;50.614;13.830;2022-12-18T14:29:21;-3.80;1.00
7214;DHT22;3648;50.614;13.830;2022-12-18T14:32:04;-3.90;1.00
7214;DHT22;3648;50.614;13.830;2022-12-18T14:34:31;-3.90;1.00
7214;DHT22;3648;50.614;13.830;2022-12-18T14:37:00;-3.80;1.00
7214;DHT22;3648;50.614;13.830;2022-12-18T14:39:28;-3.70;1.00
7214;DHT22;3648;50.614;13.830;2022-12-18T14:41:55;-3.80;1.00
7214;DHT22;3648;50.614;13.830;2022-12-18T14:44:22;-3.80;1.00
7214;DHT22;3648;50.614;13.830;2022-12-18T14:46:50;-3.90;1.00
7214;DHT22;3648;50.614;13.830;2022-12-18T14:49:21;-4.00;1.00
7214;DHT22;3648;50.614;13.830;2022-12-18T14:51:52;-4.10;1.00
7214;DHT22;3648;50.614;13.830;2022-12-18T14:54:20;-4.10;1.00
7214;DHT22;3648;50.614;13.830;2022-12-18T14:56:59;-4.00;1.00
7214;DHT22;3648;50.614;13.830;2022-12-18T14:59:28;-4.00;1.00
7214;DHT22;3648;50.614;13.830;2022-12-18T15:02:03;-3.90;1.00
7214;DHT22;3648;50.614;13.830;2022-12-18T15:04:32;-3.80;1.00
7214;DHT22;3648;50.614;13.830;2022-12-18T15:07:12;-3.70;1.00
7214;DHT22;3648;50.614;13.830;2022-12-18T15:09:41;-3.70;1.00
7214;DHT22;3648;50.614;13.830;2022-12-18T15:12:24;-3.60;1.00
7214;DHT22;3648;50.614;13.830;2022-12-18T15:15:44;-3.60;1.00
7214;DHT22;3648;50.614;13.830;2022-12-18T15:18:13;-3.70;1.00
7214;DHT22;3648;50.614;13.830;2022-12-18T15:20:44;-3.70;1.00
7214;DHT22;3648;50.614;13.830;2022-12-18T15:23:24;-3.70;1.00
7214;DHT22;3648;50.614;13.830;2022-12-18T15:25:59;-3.80;1.00
7214;DHT22;3648;50.614;13.830;2022-12-18T15:28:32;-3.80;1.00
7214;DHT22;3648;50.614;13.830;2022-12-18T15:31:06;-3.80;1.00
7214;DHT22;3648;50.614;13.830;2022-12-18T15:34:05;-3.80;1.00
7214;DHT22;3648;50.614;13.830;2022-12-18T15:36:32;-3.90;1.00
7214;DHT22;3648;50.614;13.830;2022-12-18T15:39:02;-3.90;1.00
7214;DHT22;3648;50.614;13.830;2022-12-18T15:41:31;-4.00;1.00
7214;DHT22;3648;50.614;13.830;2022-12-18T15:44:00;-4.00;1.00
7214;DHT22;3648;50.614;13.830;2022-12-18T15:46:26;-4.10;1.00
7214;DHT22;3648;50.614;13.830;2022-12-18T15:48:55;-4.10;1.00
7214;DHT22;3648;50.614;13.830;2022-12-18T15:51:24;-4.10;1.00
7214;DHT22;3648;50.614;13.830;2022-12-18T15:53:53;-4.10;1.00
7214;DHT22;3648;50.614;13.830;2022-12-18T15:56:21;-4.10;1.00
7214;DHT22;3648;50.614;13.830;2022-12-18T15:59:11;-4.20;1.00
7214;DHT22;3648;50.614;13.830;2022-12-18T16:01:39;-4.20;1.00
7214;DHT22;3648;50.614;13.830;2022-12-18T16:04:08;-4.20;1.00
7214;DHT22;3648;50.614;13.830;2022-12-18T16:06:36;-4.20;1.00
7214;DHT22;3648;50.614;13.830;2022-12-18T16:09:03;-4.20;1.00
7214;DHT22;3648;50.614;13.830;2022-12-18T16:11:32;-4.20;1.00
7214;DHT22;3648;50.614;13.830;2022-12-18T16:14:15;-4.20;1.00
7214;DHT22;3648;50.614;13.830;2022-12-18T16:16:43;-4.20;1.00
7214;DHT22;3648;50.614;13.830;2022-12-18T16:19:10;-4.20;1.00
7214;DHT22;3648;50.614;13.830;2022-12-18T16:21:38;-4.20;1.00
7214;DHT22;3648;50.614;13.830;2022-12-18T16:24:05;-4.20;1.00
7214;DHT22;3648;50.614;13.830;2022-12-18T16:26:32;-4.20;1.00
7214;DHT22;3648;50.614;13.830;2022-12-18T16:28:59;-4.20;1.00